Pagrindinis puslapis
METAR-TAF:

METAR-TAF

Oro uostai :

Arar, Saudo Arabija

platuma: 30-54N, ilguma: 041-08E, Aukštis: 555 m

Dabartinis oras

Ataskaita buvo paskelbta 1 valandą ir 6 minutes, ne 11:00 UTC
Vėjas 6 kt iš Pietų/Pietvakarių
Temperatūra 17°C
Drėgmė 36%
Slėgis 1020 hPa
Matomumas 10 km arba daugiau
nėra debesų žemiau 1500 m ir nėra kamuolinių lietaus debesų

METAR: OERR 271100Z 21006KT CAVOK 17/02 Q1020 NOSIG

Laikas: 15:06 (12:06 UTC)

Prognozė

Ataskaita buvo paskelbta 1 valandą ir 6 minutes, ne 11:00 UTC
Prognozė galioja nuo 27 metu 12 UTC su 28 metu 18 UTC
Vėjas 6 kt iš Pietryčių
Matomumas 10 km arba daugiau
nėra debesų žemiau 1500 m ir nėra kamuolinių lietaus debesų
Tapsmas
nuo 27 metu 18 UTC su 27 metu 20 UTC
Vėjas 3 kt nuo kintamojo kryptimis
Matomumas: 7000 m
Tapsmas
nuo 28 metu 06 UTC su 28 metu 08 UTC
Vėjas 10 kt iš Pietų/Pietvakarių
Matomumas 10 km arba daugiau
nėra debesų žemiau 1500 m ir nėra kamuolinių lietaus debesų

TAF: OERR 271100Z 2712/2818 14006KT CAVOK BECMG 2718/2720 VRB03KT 7000 BECMG 2806/2808 20010KT CAVOK

Orai ataskaitas ir orų prognozės (METAR, TAF).

turimą stotys yra geltonos ir raudonos taškus žemėlapyje.

Perkelti pele per norėdami pamatyti stoties vardą.

Tada spustelėkite, norėdami matyti oro stebėjimo ir prognozės.

Norėdami pakeisti žemėlapį: spustelėkite ant žalios mygtukų su juodo kryžiaus žemyn,; žalią mygtuką su brūkšneliu, jei norite nutolinti; arba žalių rodyklių gretimoms žemėlapius.


METAR-TAF: